sensor_id;sensor_type;location;lat;lon;timestamp;P1;durP1;ratioP1;P2;durP2;ratioP2
68126;SDS011;54931;52.098;21.006;2023-05-07T00:00:37;8.60;;;3.90;;
68126;SDS011;54931;52.098;21.006;2023-05-07T00:03:20;8.80;;;4.50;;
68126;SDS011;54931;52.098;21.006;2023-05-07T00:05:48;7.20;;;4.10;;
68126;SDS011;54931;52.098;21.006;2023-05-07T00:08:16;11.00;;;5.30;;
68126;SDS011;54931;52.098;21.006;2023-05-07T00:10:43;9.00;;;4.70;;
68126;SDS011;54931;52.098;21.006;2023-05-07T00:13:11;9.10;;;5.00;;
68126;SDS011;54931;52.098;21.006;2023-05-07T00:15:38;9.70;;;4.60;;
68126;SDS011;54931;52.098;21.006;2023-05-07T00:18:06;9.80;;;4.50;;
68126;SDS011;54931;52.098;21.006;2023-05-07T00:20:34;9.00;;;4.40;;
68126;SDS011;54931;52.098;21.006;2023-05-07T00:23:02;7.70;;;3.70;;
68126;SDS011;54931;52.098;21.006;2023-05-07T00:25:29;7.90;;;3.70;;
68126;SDS011;54931;52.098;21.006;2023-05-07T00:27:57;9.30;;;4.50;;
68126;SDS011;54931;52.098;21.006;2023-05-07T00:30:29;12.20;;;4.90;;
68126;SDS011;54931;52.098;21.006;2023-05-07T00:32:57;9.60;;;4.60;;
68126;SDS011;54931;52.098;21.006;2023-05-07T00:35:25;6.70;;;3.30;;
68126;SDS011;54931;52.098;21.006;2023-05-07T00:37:53;9.10;;;5.00;;
68126;SDS011;54931;52.098;21.006;2023-05-07T00:40:20;8.50;;;4.80;;
68126;SDS011;54931;52.098;21.006;2023-05-07T00:42:49;9.00;;;4.50;;
68126;SDS011;54931;52.098;21.006;2023-05-07T00:45:17;7.70;;;4.30;;
68126;SDS011;54931;52.098;21.006;2023-05-07T00:47:45;10.40;;;5.00;;
68126;SDS011;54931;52.098;21.006;2023-05-07T00:50:13;8.70;;;4.00;;
68126;SDS011;54931;52.098;21.006;2023-05-07T00:52:40;8.40;;;4.40;;
68126;SDS011;54931;52.098;21.006;2023-05-07T00:55:09;10.50;;;5.20;;
68126;SDS011;54931;52.098;21.006;2023-05-07T00:57:37;7.30;;;3.80;;
68126;SDS011;54931;52.098;21.006;2023-05-07T01:00:09;7.20;;;3.90;;
68126;SDS011;54931;52.098;21.006;2023-05-07T01:02:39;11.30;;;5.00;;
68126;SDS011;54931;52.098;21.006;2023-05-07T01:05:09;9.10;;;4.20;;
68126;SDS011;54931;52.098;21.006;2023-05-07T01:07:40;7.70;;;4.20;;
68126;SDS011;54931;52.098;21.006;2023-05-07T01:10:10;10.30;;;4.80;;
68126;SDS011;54931;52.098;21.006;2023-05-07T01:12:40;8.30;;;5.10;;
68126;SDS011;54931;52.098;21.006;2023-05-07T01:15:09;11.10;;;5.60;;
68126;SDS011;54931;52.098;21.006;2023-05-07T01:17:41;9.00;;;4.60;;
68126;SDS011;54931;52.098;21.006;2023-05-07T01:20:10;12.30;;;5.60;;
68126;SDS011;54931;52.098;21.006;2023-05-07T01:22:39;12.10;;;5.90;;
68126;SDS011;54931;52.098;21.006;2023-05-07T01:25:07;10.80;;;5.70;;
68126;SDS011;54931;52.098;21.006;2023-05-07T01:27:35;13.00;;;6.50;;
68126;SDS011;54931;52.098;21.006;2023-05-07T01:30:05;13.10;;;7.00;;
68126;SDS011;54931;52.098;21.006;2023-05-07T01:35:22;12.40;;;5.80;;
68126;SDS011;54931;52.098;21.006;2023-05-07T01:37:52;11.10;;;5.50;;
68126;SDS011;54931;52.098;21.006;2023-05-07T01:40:22;12.10;;;5.60;;
68126;SDS011;54931;52.098;21.006;2023-05-07T01:42:50;11.60;;;5.40;;
68126;SDS011;54931;52.098;21.006;2023-05-07T01:45:18;12.10;;;5.80;;
68126;SDS011;54931;52.098;21.006;2023-05-07T01:47:45;6.20;;;3.30;;
68126;SDS011;54931;52.098;21.006;2023-05-07T01:50:15;9.30;;;4.90;;
68126;SDS011;54931;52.098;21.006;2023-05-07T01:52:45;8.40;;;4.80;;
68126;SDS011;54931;52.098;21.006;2023-05-07T01:55:14;7.40;;;3.80;;
68126;SDS011;54931;52.098;21.006;2023-05-07T01:57:42;9.60;;;4.80;;
68126;SDS011;54931;52.098;21.006;2023-05-07T02:00:10;7.70;;;4.30;;
68126;SDS011;54931;52.098;21.006;2023-05-07T02:02:38;14.00;;;5.70;;
68126;SDS011;54931;52.098;21.006;2023-05-07T02:05:06;12.50;;;5.90;;
68126;SDS011;54931;52.098;21.006;2023-05-07T02:07:34;12.60;;;5.80;;
68126;SDS011;54931;52.098;21.006;2023-05-07T02:10:02;10.60;;;5.10;;
68126;SDS011;54931;52.098;21.006;2023-05-07T02:12:30;9.90;;;4.80;;
68126;SDS011;54931;52.098;21.006;2023-05-07T02:14:57;6.00;;;3.50;;
68126;SDS011;54931;52.098;21.006;2023-05-07T02:17:25;9.80;;;4.90;;
68126;SDS011;54931;52.098;21.006;2023-05-07T02:19:52;8.00;;;4.70;;
68126;SDS011;54931;52.098;21.006;2023-05-07T02:22:20;8.50;;;4.20;;
68126;SDS011;54931;52.098;21.006;2023-05-07T02:24:47;10.20;;;5.70;;
68126;SDS011;54931;52.098;21.006;2023-05-07T02:27:15;12.70;;;6.60;;
68126;SDS011;54931;52.098;21.006;2023-05-07T02:29:42;11.70;;;6.60;;
68126;SDS011;54931;52.098;21.006;2023-05-07T02:32:10;10.40;;;5.00;;
68126;SDS011;54931;52.098;21.006;2023-05-07T02:34:38;9.70;;;5.40;;
68126;SDS011;54931;52.098;21.006;2023-05-07T02:37:05;12.00;;;6.00;;
68126;SDS011;54931;52.098;21.006;2023-05-07T02:39:33;12.80;;;5.80;;
68126;SDS011;54931;52.098;21.006;2023-05-07T02:42:01;9.40;;;5.50;;
68126;SDS011;54931;52.098;21.006;2023-05-07T02:44:29;10.90;;;5.70;;
68126;SDS011;54931;52.098;21.006;2023-05-07T02:46:58;9.60;;;4.30;;
68126;SDS011;54931;52.098;21.006;2023-05-07T02:49:25;10.30;;;5.10;;
68126;SDS011;54931;52.098;21.006;2023-05-07T02:51:53;11.00;;;5.60;;
68126;SDS011;54931;52.098;21.006;2023-05-07T02:54:21;12.00;;;5.40;;
68126;SDS011;54931;52.098;21.006;2023-05-07T02:56:48;8.80;;;4.50;;
68126;SDS011;54931;52.098;21.006;2023-05-07T02:59:16;8.70;;;5.00;;
68126;SDS011;54931;52.098;21.006;2023-05-07T03:01:43;10.20;;;5.10;;
68126;SDS011;54931;52.098;21.006;2023-05-07T03:04:12;10.40;;;5.50;;
68126;SDS011;54931;52.098;21.006;2023-05-07T03:06:40;10.10;;;5.00;;
68126;SDS011;54931;52.098;21.006;2023-05-07T03:09:07;6.30;;;3.50;;
68126;SDS011;54931;52.098;21.006;2023-05-07T03:11:35;9.10;;;4.70;;
68126;SDS011;54931;52.098;21.006;2023-05-07T03:14:03;7.90;;;4.70;;
68126;SDS011;54931;52.098;21.006;2023-05-07T03:16:31;7.10;;;4.50;;
68126;SDS011;54931;52.098;21.006;2023-05-07T03:18:58;9.60;;;4.70;;
68126;SDS011;54931;52.098;21.006;2023-05-07T03:21:26;6.90;;;4.20;;
68126;SDS011;54931;52.098;21.006;2023-05-07T03:23:54;7.90;;;4.90;;
68126;SDS011;54931;52.098;21.006;2023-05-07T03:26:22;11.10;;;5.30;;
68126;SDS011;54931;52.098;21.006;2023-05-07T03:28:49;9.60;;;4.90;;
68126;SDS011;54931;52.098;21.006;2023-05-07T03:31:17;6.70;;;3.60;;
68126;SDS011;54931;52.098;21.006;2023-05-07T03:33:56;5.00;;;2.90;;
68126;SDS011;54931;52.098;21.006;2023-05-07T03:36:24;9.80;;;5.20;;
68126;SDS011;54931;52.098;21.006;2023-05-07T03:38:55;9.20;;;5.00;;
68126;SDS011;54931;52.098;21.006;2023-05-07T03:41:23;6.90;;;3.80;;
68126;SDS011;54931;52.098;21.006;2023-05-07T03:43:51;6.60;;;3.80;;
68126;SDS011;54931;52.098;21.006;2023-05-07T03:46:18;7.80;;;2.90;;
68126;SDS011;54931;52.098;21.006;2023-05-07T03:48:46;4.60;;;2.90;;
68126;SDS011;54931;52.098;21.006;2023-05-07T03:51:14;5.40;;;3.10;;
68126;SDS011;54931;52.098;21.006;2023-05-07T03:53:41;3.30;;;2.30;;
68126;SDS011;54931;52.098;21.006;2023-05-07T03:56:09;5.30;;;3.60;;
68126;SDS011;54931;52.098;21.006;2023-05-07T03:58:36;5.00;;;3.10;;
68126;SDS011;54931;52.098;21.006;2023-05-07T04:01:04;7.70;;;3.60;;
68126;SDS011;54931;52.098;21.006;2023-05-07T04:03:31;8.00;;;5.10;;
68126;SDS011;54931;52.098;21.006;2023-05-07T04:05:59;10.50;;;4.40;;
68126;SDS011;54931;52.098;21.006;2023-05-07T04:08:26;8.40;;;4.90;;
68126;SDS011;54931;52.098;21.006;2023-05-07T04:10:58;3.50;;;2.40;;
68126;SDS011;54931;52.098;21.006;2023-05-07T04:13:25;6.70;;;3.50;;
68126;SDS011;54931;52.098;21.006;2023-05-07T04:15:54;6.20;;;3.70;;
68126;SDS011;54931;52.098;21.006;2023-05-07T04:18:23;6.60;;;4.10;;
68126;SDS011;54931;52.098;21.006;2023-05-07T04:20:50;6.40;;;3.70;;
68126;SDS011;54931;52.098;21.006;2023-05-07T04:23:18;6.10;;;3.60;;
68126;SDS011;54931;52.098;21.006;2023-05-07T04:25:45;4.80;;;3.00;;
68126;SDS011;54931;52.098;21.006;2023-05-07T04:28:14;3.50;;;2.20;;
68126;SDS011;54931;52.098;21.006;2023-05-07T04:30:42;7.20;;;3.50;;
68126;SDS011;54931;52.098;21.006;2023-05-07T04:33:09;9.40;;;3.60;;
68126;SDS011;54931;52.098;21.006;2023-05-07T04:35:37;6.10;;;4.00;;
68126;SDS011;54931;52.098;21.006;2023-05-07T04:38:05;6.90;;;3.60;;
68126;SDS011;54931;52.098;21.006;2023-05-07T04:40:32;8.10;;;4.50;;
68126;SDS011;54931;52.098;21.006;2023-05-07T04:43:02;5.20;;;3.40;;
68126;SDS011;54931;52.098;21.006;2023-05-07T04:45:29;7.40;;;4.00;;
68126;SDS011;54931;52.098;21.006;2023-05-07T04:47:57;5.90;;;3.60;;
68126;SDS011;54931;52.098;21.006;2023-05-07T04:50:25;6.00;;;3.80;;
68126;SDS011;54931;52.098;21.006;2023-05-07T04:52:53;7.80;;;4.20;;
68126;SDS011;54931;52.098;21.006;2023-05-07T04:55:20;5.00;;;3.10;;
68126;SDS011;54931;52.098;21.006;2023-05-07T04:57:48;7.80;;;3.90;;
68126;SDS011;54931;52.098;21.006;2023-05-07T05:00:16;5.60;;;3.60;;
68126;SDS011;54931;52.098;21.006;2023-05-07T05:02:46;6.50;;;4.00;;
68126;SDS011;54931;52.098;21.006;2023-05-07T05:05:14;7.10;;;4.40;;
68126;SDS011;54931;52.098;21.006;2023-05-07T05:07:42;6.00;;;3.80;;
68126;SDS011;54931;52.098;21.006;2023-05-07T05:10:09;5.30;;;3.00;;
68126;SDS011;54931;52.098;21.006;2023-05-07T05:12:37;7.50;;;4.50;;
68126;SDS011;54931;52.098;21.006;2023-05-07T05:15:06;6.60;;;3.70;;
68126;SDS011;54931;52.098;21.006;2023-05-07T05:17:34;7.10;;;4.30;;
68126;SDS011;54931;52.098;21.006;2023-05-07T05:20:04;6.80;;;3.50;;
68126;SDS011;54931;52.098;21.006;2023-05-07T05:22:32;6.60;;;3.80;;
68126;SDS011;54931;52.098;21.006;2023-05-07T05:25:00;6.70;;;4.20;;
68126;SDS011;54931;52.098;21.006;2023-05-07T05:27:28;7.90;;;4.60;;
68126;SDS011;54931;52.098;21.006;2023-05-07T05:29:56;8.30;;;4.20;;
68126;SDS011;54931;52.098;21.006;2023-05-07T05:32:24;7.70;;;4.50;;
68126;SDS011;54931;52.098;21.006;2023-05-07T05:34:52;6.90;;;4.20;;
68126;SDS011;54931;52.098;21.006;2023-05-07T05:37:20;6.30;;;4.10;;
68126;SDS011;54931;52.098;21.006;2023-05-07T05:39:47;6.70;;;3.90;;
68126;SDS011;54931;52.098;21.006;2023-05-07T05:42:15;7.30;;;4.10;;
68126;SDS011;54931;52.098;21.006;2023-05-07T05:44:42;6.30;;;2.90;;
68126;SDS011;54931;52.098;21.006;2023-05-07T05:47:10;6.60;;;3.70;;
68126;SDS011;54931;52.098;21.006;2023-05-07T05:49:38;7.30;;;4.10;;
68126;SDS011;54931;52.098;21.006;2023-05-07T05:52:05;6.40;;;3.20;;
68126;SDS011;54931;52.098;21.006;2023-05-07T05:54:33;8.10;;;4.40;;
68126;SDS011;54931;52.098;21.006;2023-05-07T05:57:01;7.20;;;3.50;;
68126;SDS011;54931;52.098;21.006;2023-05-07T05:59:31;7.10;;;4.20;;
68126;SDS011;54931;52.098;21.006;2023-05-07T06:01:58;12.90;;;6.90;;
68126;SDS011;54931;52.098;21.006;2023-05-07T06:04:26;8.20;;;5.10;;
68126;SDS011;54931;52.098;21.006;2023-05-07T06:06:53;10.70;;;5.80;;
68126;SDS011;54931;52.098;21.006;2023-05-07T06:09:21;6.90;;;4.10;;
68126;SDS011;54931;52.098;21.006;2023-05-07T06:11:48;7.00;;;4.50;;
68126;SDS011;54931;52.098;21.006;2023-05-07T06:14:16;10.70;;;6.70;;
68126;SDS011;54931;52.098;21.006;2023-05-07T06:16:44;5.10;;;3.60;;
68126;SDS011;54931;52.098;21.006;2023-05-07T06:19:11;7.70;;;3.40;;
68126;SDS011;54931;52.098;21.006;2023-05-07T06:21:39;5.00;;;2.70;;
68126;SDS011;54931;52.098;21.006;2023-05-07T06:24:08;6.80;;;3.80;;
68126;SDS011;54931;52.098;21.006;2023-05-07T06:26:35;7.60;;;4.60;;
68126;SDS011;54931;52.098;21.006;2023-05-07T06:29:03;9.70;;;4.00;;
68126;SDS011;54931;52.098;21.006;2023-05-07T06:31:30;4.70;;;3.40;;
68126;SDS011;54931;52.098;21.006;2023-05-07T06:33:59;5.10;;;3.20;;
68126;SDS011;54931;52.098;21.006;2023-05-07T06:36:26;6.60;;;3.60;;
68126;SDS011;54931;52.098;21.006;2023-05-07T06:38:54;9.50;;;6.60;;
68126;SDS011;54931;52.098;21.006;2023-05-07T06:41:22;11.10;;;7.40;;
68126;SDS011;54931;52.098;21.006;2023-05-07T06:43:50;6.30;;;4.00;;
68126;SDS011;54931;52.098;21.006;2023-05-07T06:46:17;3.70;;;2.40;;
68126;SDS011;54931;52.098;21.006;2023-05-07T06:48:44;3.30;;;2.20;;
68126;SDS011;54931;52.098;21.006;2023-05-07T06:51:12;3.00;;;1.90;;
68126;SDS011;54931;52.098;21.006;2023-05-07T06:53:39;4.30;;;2.40;;
68126;SDS011;54931;52.098;21.006;2023-05-07T06:56:07;3.70;;;2.40;;
68126;SDS011;54931;52.098;21.006;2023-05-07T06:58:35;4.50;;;2.60;;
68126;SDS011;54931;52.098;21.006;2023-05-07T07:01:03;3.20;;;2.10;;
68126;SDS011;54931;52.098;21.006;2023-05-07T07:03:30;3.30;;;1.90;;
68126;SDS011;54931;52.098;21.006;2023-05-07T07:05:58;6.70;;;2.30;;
68126;SDS011;54931;52.098;21.006;2023-05-07T07:08:26;3.40;;;2.10;;
68126;SDS011;54931;52.098;21.006;2023-05-07T07:10:54;4.50;;;1.90;;
68126;SDS011;54931;52.098;21.006;2023-05-07T07:13:21;4.70;;;2.30;;
68126;SDS011;54931;52.098;21.006;2023-05-07T07:15:49;3.80;;;2.50;;
68126;SDS011;54931;52.098;21.006;2023-05-07T07:18:16;5.30;;;2.90;;
68126;SDS011;54931;52.098;21.006;2023-05-07T07:20:44;5.00;;;2.30;;
68126;SDS011;54931;52.098;21.006;2023-05-07T07:23:12;4.50;;;2.60;;
68126;SDS011;54931;52.098;21.006;2023-05-07T07:25:39;6.20;;;3.80;;
68126;SDS011;54931;52.098;21.006;2023-05-07T07:28:07;4.40;;;2.70;;
68126;SDS011;54931;52.098;21.006;2023-05-07T07:30:37;5.40;;;3.00;;
68126;SDS011;54931;52.098;21.006;2023-05-07T07:33:04;4.10;;;2.60;;
68126;SDS011;54931;52.098;21.006;2023-05-07T07:35:32;4.00;;;2.10;;
68126;SDS011;54931;52.098;21.006;2023-05-07T07:38:00;6.10;;;3.30;;
68126;SDS011;54931;52.098;21.006;2023-05-07T07:40:28;5.70;;;3.10;;
68126;SDS011;54931;52.098;21.006;2023-05-07T07:42:57;6.60;;;3.30;;
68126;SDS011;54931;52.098;21.006;2023-05-07T07:45:24;5.20;;;3.10;;
68126;SDS011;54931;52.098;21.006;2023-05-07T07:47:52;5.00;;;2.60;;
68126;SDS011;54931;52.098;21.006;2023-05-07T07:50:20;3.70;;;2.80;;
68126;SDS011;54931;52.098;21.006;2023-05-07T07:52:48;3.60;;;2.20;;
68126;SDS011;54931;52.098;21.006;2023-05-07T07:55:19;8.90;;;3.10;;
68126;SDS011;54931;52.098;21.006;2023-05-07T07:57:49;3.60;;;2.60;;
68126;SDS011;54931;52.098;21.006;2023-05-07T08:00:17;3.30;;;2.40;;
68126;SDS011;54931;52.098;21.006;2023-05-07T08:02:45;4.50;;;2.80;;
68126;SDS011;54931;52.098;21.006;2023-05-07T08:05:13;4.90;;;2.70;;
68126;SDS011;54931;52.098;21.006;2023-05-07T08:07:42;4.10;;;2.50;;
68126;SDS011;54931;52.098;21.006;2023-05-07T08:10:10;6.60;;;3.30;;
68126;SDS011;54931;52.098;21.006;2023-05-07T08:12:37;13.30;;;6.00;;
68126;SDS011;54931;52.098;21.006;2023-05-07T08:15:06;6.50;;;3.60;;
68126;SDS011;54931;52.098;21.006;2023-05-07T08:17:34;4.90;;;2.60;;
68126;SDS011;54931;52.098;21.006;2023-05-07T08:20:02;6.90;;;3.70;;
68126;SDS011;54931;52.098;21.006;2023-05-07T08:22:30;5.30;;;3.10;;
68126;SDS011;54931;52.098;21.006;2023-05-07T08:24:58;4.30;;;2.10;;
68126;SDS011;54931;52.098;21.006;2023-05-07T08:27:27;5.00;;;2.50;;
68126;SDS011;54931;52.098;21.006;2023-05-07T08:29:54;7.50;;;3.30;;
68126;SDS011;54931;52.098;21.006;2023-05-07T08:32:22;4.10;;;2.30;;
68126;SDS011;54931;52.098;21.006;2023-05-07T08:34:49;7.40;;;4.10;;
68126;SDS011;54931;52.098;21.006;2023-05-07T08:37:17;8.60;;;3.40;;
68126;SDS011;54931;52.098;21.006;2023-05-07T08:39:44;4.20;;;2.10;;
68126;SDS011;54931;52.098;21.006;2023-05-07T08:42:12;6.10;;;3.20;;
68126;SDS011;54931;52.098;21.006;2023-05-07T08:44:45;5.40;;;2.60;;
68126;SDS011;54931;52.098;21.006;2023-05-07T08:47:17;4.10;;;2.90;;
68126;SDS011;54931;52.098;21.006;2023-05-07T08:49:45;4.00;;;2.60;;
68126;SDS011;54931;52.098;21.006;2023-05-07T08:52:13;3.80;;;2.40;;
68126;SDS011;54931;52.098;21.006;2023-05-07T08:54:41;4.70;;;2.40;;
68126;SDS011;54931;52.098;21.006;2023-05-07T08:57:09;4.90;;;2.50;;
68126;SDS011;54931;52.098;21.006;2023-05-07T08:59:37;4.70;;;2.50;;
68126;SDS011;54931;52.098;21.006;2023-05-07T09:02:06;4.30;;;2.90;;
68126;SDS011;54931;52.098;21.006;2023-05-07T09:04:37;4.40;;;2.40;;
68126;SDS011;54931;52.098;21.006;2023-05-07T09:07:05;3.70;;;2.60;;
68126;SDS011;54931;52.098;21.006;2023-05-07T09:09:33;4.40;;;2.60;;
68126;SDS011;54931;52.098;21.006;2023-05-07T09:12:01;2.90;;;1.80;;
68126;SDS011;54931;52.098;21.006;2023-05-07T09:14:30;3.60;;;2.30;;
68126;SDS011;54931;52.098;21.006;2023-05-07T09:16:58;3.20;;;2.50;;
68126;SDS011;54931;52.098;21.006;2023-05-07T09:19:27;5.00;;;2.20;;
68126;SDS011;54931;52.098;21.006;2023-05-07T09:22:02;4.10;;;2.10;;
68126;SDS011;54931;52.098;21.006;2023-05-07T09:24:31;5.80;;;2.90;;
68126;SDS011;54931;52.098;21.006;2023-05-07T09:27:02;4.80;;;2.70;;
68126;SDS011;54931;52.098;21.006;2023-05-07T09:29:30;6.00;;;2.90;;
68126;SDS011;54931;52.098;21.006;2023-05-07T09:32:06;6.00;;;2.90;;
68126;SDS011;54931;52.098;21.006;2023-05-07T09:34:35;5.80;;;2.90;;
68126;SDS011;54931;52.098;21.006;2023-05-07T09:37:04;5.90;;;2.80;;
68126;SDS011;54931;52.098;21.006;2023-05-07T09:39:40;20.70;;;4.40;;
68126;SDS011;54931;52.098;21.006;2023-05-07T09:42:13;9.80;;;5.10;;
68126;SDS011;54931;52.098;21.006;2023-05-07T09:44:43;8.00;;;5.00;;
68126;SDS011;54931;52.098;21.006;2023-05-07T09:47:16;5.60;;;3.50;;
68126;SDS011;54931;52.098;21.006;2023-05-07T09:49:48;6.10;;;3.40;;
68126;SDS011;54931;52.098;21.006;2023-05-07T09:52:16;7.10;;;5.00;;
68126;SDS011;54931;52.098;21.006;2023-05-07T09:54:45;5.00;;;3.10;;
68126;SDS011;54931;52.098;21.006;2023-05-07T09:57:14;4.60;;;2.60;;
68126;SDS011;54931;52.098;21.006;2023-05-07T09:59:43;4.20;;;2.90;;
68126;SDS011;54931;52.098;21.006;2023-05-07T10:02:14;4.30;;;2.70;;
68126;SDS011;54931;52.098;21.006;2023-05-07T10:04:43;3.90;;;2.40;;
68126;SDS011;54931;52.098;21.006;2023-05-07T10:07:14;5.10;;;2.60;;
68126;SDS011;54931;52.098;21.006;2023-05-07T10:09:43;5.30;;;2.60;;
68126;SDS011;54931;52.098;21.006;2023-05-07T10:12:13;5.40;;;2.70;;
68126;SDS011;54931;52.098;21.006;2023-05-07T10:14:41;6.90;;;3.10;;
68126;SDS011;54931;52.098;21.006;2023-05-07T10:17:11;4.20;;;2.60;;
68126;SDS011;54931;52.098;21.006;2023-05-07T10:19:40;5.90;;;2.80;;
68126;SDS011;54931;52.098;21.006;2023-05-07T10:22:08;4.10;;;2.40;;
68126;SDS011;54931;52.098;21.006;2023-05-07T10:24:36;5.50;;;3.60;;
68126;SDS011;54931;52.098;21.006;2023-05-07T10:27:10;8.10;;;4.90;;
68126;SDS011;54931;52.098;21.006;2023-05-07T10:29:57;5.50;;;3.00;;
68126;SDS011;54931;52.098;21.006;2023-05-07T10:32:43;6.50;;;3.70;;
68126;SDS011;54931;52.098;21.006;2023-05-07T10:35:19;4.60;;;2.50;;
68126;SDS011;54931;52.098;21.006;2023-05-07T10:37:50;9.50;;;3.80;;
68126;SDS011;54931;52.098;21.006;2023-05-07T10:40:20;4.70;;;2.50;;
68126;SDS011;54931;52.098;21.006;2023-05-07T10:42:58;5.80;;;3.40;;
68126;SDS011;54931;52.098;21.006;2023-05-07T10:45:28;6.40;;;3.70;;
68126;SDS011;54931;52.098;21.006;2023-05-07T10:48:12;7.60;;;3.90;;
68126;SDS011;54931;52.098;21.006;2023-05-07T10:50:44;6.80;;;4.00;;
68126;SDS011;54931;52.098;21.006;2023-05-07T10:58:46;4.70;;;2.80;;
68126;SDS011;54931;52.098;21.006;2023-05-07T11:01:13;9.40;;;5.10;;
68126;SDS011;54931;52.098;21.006;2023-05-07T11:04:16;7.80;;;3.40;;
68126;SDS011;54931;52.098;21.006;2023-05-07T11:07:23;6.80;;;3.60;;
68126;SDS011;54931;52.098;21.006;2023-05-07T11:15:15;6.40;;;3.40;;
68126;SDS011;54931;52.098;21.006;2023-05-07T11:18:04;7.80;;;4.00;;
68126;SDS011;54931;52.098;21.006;2023-05-07T11:26:05;5.00;;;3.00;;
68126;SDS011;54931;52.098;21.006;2023-05-07T11:28:42;8.60;;;3.90;;
68126;SDS011;54931;52.098;21.006;2023-05-07T11:31:10;5.00;;;3.40;;
68126;SDS011;54931;52.098;21.006;2023-05-07T11:33:38;4.70;;;3.00;;
68126;SDS011;54931;52.098;21.006;2023-05-07T11:36:08;7.70;;;3.30;;
68126;SDS011;54931;52.098;21.006;2023-05-07T11:38:36;8.40;;;3.50;;
68126;SDS011;54931;52.098;21.006;2023-05-07T11:41:06;4.80;;;3.00;;
68126;SDS011;54931;52.098;21.006;2023-05-07T11:43:35;5.50;;;3.30;;
68126;SDS011;54931;52.098;21.006;2023-05-07T11:46:08;4.50;;;2.80;;
68126;SDS011;54931;52.098;21.006;2023-05-07T11:48:38;5.50;;;3.00;;
68126;SDS011;54931;52.098;21.006;2023-05-07T11:51:06;6.80;;;2.60;;
68126;SDS011;54931;52.098;21.006;2023-05-07T11:53:41;5.80;;;2.20;;
68126;SDS011;54931;52.098;21.006;2023-05-07T11:56:12;6.90;;;3.60;;
68126;SDS011;54931;52.098;21.006;2023-05-07T11:58:42;7.50;;;3.70;;
68126;SDS011;54931;52.098;21.006;2023-05-07T12:01:12;6.60;;;2.80;;
68126;SDS011;54931;52.098;21.006;2023-05-07T12:03:41;4.50;;;2.50;;
68126;SDS011;54931;52.098;21.006;2023-05-07T12:06:13;6.40;;;2.90;;
68126;SDS011;54931;52.098;21.006;2023-05-07T12:08:42;4.60;;;2.70;;
68126;SDS011;54931;52.098;21.006;2023-05-07T12:11:23;5.90;;;2.60;;
68126;SDS011;54931;52.098;21.006;2023-05-07T12:13:53;6.60;;;3.50;;
68126;SDS011;54931;52.098;21.006;2023-05-07T12:16:23;5.60;;;3.80;;
68126;SDS011;54931;52.098;21.006;2023-05-07T12:18:51;3.80;;;2.50;;
68126;SDS011;54931;52.098;21.006;2023-05-07T12:21:23;5.90;;;3.20;;
68126;SDS011;54931;52.098;21.006;2023-05-07T12:23:52;7.70;;;2.80;;
68126;SDS011;54931;52.098;21.006;2023-05-07T12:26:20;5.80;;;2.70;;
68126;SDS011;54931;52.098;21.006;2023-05-07T12:28:48;3.80;;;2.40;;
68126;SDS011;54931;52.098;21.006;2023-05-07T12:31:16;4.00;;;2.70;;
68126;SDS011;54931;52.098;21.006;2023-05-07T12:33:45;4.70;;;2.90;;
68126;SDS011;54931;52.098;21.006;2023-05-07T12:36:13;3.60;;;2.60;;
68126;SDS011;54931;52.098;21.006;2023-05-07T12:38:42;4.80;;;2.60;;
68126;SDS011;54931;52.098;21.006;2023-05-07T12:41:10;7.10;;;2.80;;
68126;SDS011;54931;52.098;21.006;2023-05-07T12:43:39;4.10;;;2.80;;
68126;SDS011;54931;52.098;21.006;2023-05-07T12:46:07;4.00;;;2.40;;
68126;SDS011;54931;52.098;21.006;2023-05-07T12:48:38;6.20;;;3.20;;
68126;SDS011;54931;52.098;21.006;2023-05-07T12:51:11;4.60;;;2.70;;
68126;SDS011;54931;52.098;21.006;2023-05-07T12:53:41;6.20;;;2.70;;
68126;SDS011;54931;52.098;21.006;2023-05-07T12:56:12;3.60;;;2.80;;
68126;SDS011;54931;52.098;21.006;2023-05-07T12:58:42;5.80;;;3.20;;
68126;SDS011;54931;52.098;21.006;2023-05-07T13:01:10;2.40;;;1.70;;
68126;SDS011;54931;52.098;21.006;2023-05-07T13:03:48;5.10;;;2.90;;
68126;SDS011;54931;52.098;21.006;2023-05-07T13:06:17;3.80;;;2.50;;
68126;SDS011;54931;52.098;21.006;2023-05-07T13:08:44;4.60;;;2.40;;
68126;SDS011;54931;52.098;21.006;2023-05-07T13:11:12;3.30;;;2.30;;
68126;SDS011;54931;52.098;21.006;2023-05-07T13:13:41;3.70;;;3.00;;
68126;SDS011;54931;52.098;21.006;2023-05-07T13:16:10;3.60;;;2.20;;
68126;SDS011;54931;52.098;21.006;2023-05-07T13:18:39;6.30;;;2.60;;
68126;SDS011;54931;52.098;21.006;2023-05-07T13:21:07;4.10;;;2.60;;
68126;SDS011;54931;52.098;21.006;2023-05-07T13:23:35;3.40;;;2.50;;
68126;SDS011;54931;52.098;21.006;2023-05-07T13:26:03;4.60;;;2.80;;
68126;SDS011;54931;52.098;21.006;2023-05-07T13:28:30;5.80;;;2.70;;
68126;SDS011;54931;52.098;21.006;2023-05-07T13:30:58;3.30;;;2.50;;
68126;SDS011;54931;52.098;21.006;2023-05-07T13:33:25;4.90;;;2.60;;
68126;SDS011;54931;52.098;21.006;2023-05-07T13:35:52;6.60;;;2.50;;
68126;SDS011;54931;52.098;21.006;2023-05-07T13:38:20;5.50;;;2.80;;
68126;SDS011;54931;52.098;21.006;2023-05-07T13:40:47;3.40;;;2.60;;
68126;SDS011;54931;52.098;21.006;2023-05-07T13:43:15;3.60;;;2.70;;
68126;SDS011;54931;52.098;21.006;2023-05-07T13:45:44;5.60;;;2.40;;
68126;SDS011;54931;52.098;21.006;2023-05-07T13:48:12;2.90;;;2.30;;
68126;SDS011;54931;52.098;21.006;2023-05-07T13:50:39;4.70;;;2.60;;
68126;SDS011;54931;52.098;21.006;2023-05-07T13:53:08;4.50;;;2.60;;
68126;SDS011;54931;52.098;21.006;2023-05-07T13:55:36;3.90;;;2.40;;
68126;SDS011;54931;52.098;21.006;2023-05-07T13:58:03;3.70;;;2.20;;
68126;SDS011;54931;52.098;21.006;2023-05-07T14:00:31;3.30;;;2.20;;
68126;SDS011;54931;52.098;21.006;2023-05-07T14:02:59;4.10;;;2.50;;
68126;SDS011;54931;52.098;21.006;2023-05-07T14:05:27;3.90;;;2.70;;
68126;SDS011;54931;52.098;21.006;2023-05-07T14:07:57;5.60;;;2.90;;
68126;SDS011;54931;52.098;21.006;2023-05-07T14:10:25;5.40;;;2.50;;
68126;SDS011;54931;52.098;21.006;2023-05-07T14:12:53;3.50;;;2.30;;
68126;SDS011;54931;52.098;21.006;2023-05-07T14:15:21;4.50;;;2.60;;
68126;SDS011;54931;52.098;21.006;2023-05-07T14:17:48;5.90;;;3.10;;
68126;SDS011;54931;52.098;21.006;2023-05-07T14:20:16;5.90;;;2.60;;
68126;SDS011;54931;52.098;21.006;2023-05-07T14:22:43;4.50;;;2.60;;
68126;SDS011;54931;52.098;21.006;2023-05-07T14:25:12;3.00;;;1.90;;
68126;SDS011;54931;52.098;21.006;2023-05-07T14:27:41;4.00;;;2.20;;
68126;SDS011;54931;52.098;21.006;2023-05-07T14:30:09;3.20;;;2.30;;
68126;SDS011;54931;52.098;21.006;2023-05-07T14:32:37;2.90;;;2.20;;
68126;SDS011;54931;52.098;21.006;2023-05-07T14:35:05;5.90;;;2.80;;
68126;SDS011;54931;52.098;21.006;2023-05-07T14:37:33;5.20;;;2.60;;
68126;SDS011;54931;52.098;21.006;2023-05-07T14:40:01;4.70;;;2.60;;
68126;SDS011;54931;52.098;21.006;2023-05-07T14:42:29;3.90;;;2.60;;
68126;SDS011;54931;52.098;21.006;2023-05-07T14:44:57;3.30;;;1.80;;
68126;SDS011;54931;52.098;21.006;2023-05-07T14:47:25;2.90;;;1.90;;
68126;SDS011;54931;52.098;21.006;2023-05-07T14:49:53;3.20;;;2.40;;
68126;SDS011;54931;52.098;21.006;2023-05-07T14:52:21;3.00;;;1.80;;
68126;SDS011;54931;52.098;21.006;2023-05-07T14:54:49;3.10;;;2.10;;
68126;SDS011;54931;52.098;21.006;2023-05-07T14:57:16;3.20;;;1.60;;
68126;SDS011;54931;52.098;21.006;2023-05-07T14:59:45;3.20;;;2.20;;
68126;SDS011;54931;52.098;21.006;2023-05-07T15:02:13;5.60;;;2.20;;